createdAt,value
2022-12-29T00:02:20.799Z,-0.05
2022-12-29T00:04:53.967Z,-0.07
2022-12-29T00:07:26.747Z,-0.10
2022-12-29T00:09:59.755Z,-0.11
2022-12-29T00:12:34.298Z,-0.10
2022-12-29T00:15:25.254Z,-0.11
2022-12-29T00:17:58.045Z,-0.15
2022-12-29T00:20:48.480Z,-0.20
2022-12-29T00:23:40.490Z,-0.24
2022-12-29T00:26:36.432Z,-0.27
2022-12-29T00:29:28.989Z,-0.34
2022-12-29T00:32:19.702Z,-0.40
2022-12-29T00:35:10.469Z,-0.41
2022-12-29T00:38:05.610Z,-0.45
2022-12-29T00:40:57.234Z,-0.50
2022-12-29T00:43:47.973Z,-0.55
2022-12-29T00:46:20.733Z,-0.55
2022-12-29T00:49:12.296Z,-0.52
2022-12-29T00:51:45.617Z,-0.52
2022-12-29T00:54:19.186Z,-0.53
2022-12-29T00:56:54.198Z,-0.52
2022-12-29T00:59:27.619Z,-0.57
2022-12-29T01:02:02.230Z,-0.60
2022-12-29T01:04:35.406Z,-0.62
2022-12-29T01:07:09.047Z,-0.63
2022-12-29T01:10:00.886Z,-0.66
2022-12-29T01:12:46.489Z,-0.72
2022-12-29T01:15:19.451Z,-0.75
2022-12-29T01:17:53.938Z,-0.76
2022-12-29T01:20:28.378Z,-0.77
2022-12-29T01:23:02.507Z,-0.79
2022-12-29T01:25:35.360Z,-0.80
2022-12-29T01:28:09.561Z,-0.78
2022-12-29T01:30:43.974Z,-0.77
2022-12-29T01:33:18.827Z,-0.77
2022-12-29T01:35:51.547Z,-0.76
2022-12-29T01:38:24.476Z,-0.76
2022-12-29T01:40:57.783Z,-0.77
2022-12-29T01:43:55.070Z,-0.76
2022-12-29T01:46:43.829Z,-0.77
2022-12-29T01:49:26.306Z,-0.78
2022-12-29T01:52:02.667Z,-0.80
2022-12-29T01:54:46.292Z,-0.81
2022-12-29T01:57:27.765Z,-0.81
2022-12-29T02:00:10.921Z,-0.82
2022-12-29T02:02:53.356Z,-0.81
2022-12-29T02:06:09.865Z,-0.85
2022-12-29T02:08:43.677Z,-0.92
2022-12-29T02:11:17.088Z,-0.96
2022-12-29T02:13:50.025Z,-0.99
2022-12-29T02:16:40.102Z,-1.04
2022-12-29T02:19:38.900Z,-1.09
2022-12-29T02:22:31.803Z,-1.14
2022-12-29T02:25:17.656Z,-1.19
2022-12-29T02:28:28.570Z,-1.22
2022-12-29T02:31:23.986Z,-1.22
2022-12-29T02:34:16.746Z,-1.24
2022-12-29T02:37:07.593Z,-1.26
2022-12-29T02:40:03.217Z,-1.29
2022-12-29T02:42:50.082Z,-1.28
2022-12-29T02:45:36.472Z,-1.25
2022-12-29T02:48:34.069Z,-1.23
2022-12-29T02:51:32.656Z,-1.25
2022-12-29T02:54:24.471Z,-1.30
2022-12-29T02:56:57.430Z,-1.34
2022-12-29T02:59:30.489Z,-1.36
2022-12-29T03:02:25.566Z,-1.36
2022-12-29T03:05:24.485Z,-1.38
2022-12-29T03:08:27.372Z,-1.40
2022-12-29T03:11:07.159Z,-1.43
2022-12-29T03:14:07.656Z,-1.44
2022-12-29T03:16:52.882Z,-1.45
2022-12-29T03:19:36.965Z,-1.45
2022-12-29T03:22:32.073Z,-1.40
2022-12-29T03:25:26.030Z,-1.38
2022-12-29T03:28:10.458Z,-1.40
2022-12-29T03:30:45.924Z,-1.40
2022-12-29T03:33:26.010Z,-1.42
2022-12-29T03:36:08.288Z,-1.42
2022-12-29T03:39:02.498Z,-1.39
2022-12-29T03:41:36.713Z,-1.40
2022-12-29T03:44:10.801Z,-1.37
2022-12-29T03:46:44.094Z,-1.35
2022-12-29T03:49:16.979Z,-1.31
2022-12-29T03:51:52.080Z,-1.25
2022-12-29T03:54:25.164Z,-1.22
2022-12-29T03:56:58.272Z,-1.22
2022-12-29T03:59:33.485Z,-1.22
2022-12-29T04:02:07.631Z,-1.19
2022-12-29T04:04:40.766Z,-1.20
2022-12-29T04:07:13.611Z,-1.17
2022-12-29T04:09:47.267Z,-1.16
2022-12-29T04:12:21.986Z,-1.16
2022-12-29T04:14:54.834Z,-1.13
2022-12-29T04:17:28.031Z,-1.10
2022-12-29T04:20:02.422Z,-1.07
2022-12-29T04:22:36.809Z,-1.06
2022-12-29T04:25:10.592Z,-1.05
2022-12-29T04:27:43.537Z,-1.04
2022-12-29T04:30:21.364Z,-1.04
2022-12-29T04:32:55.944Z,-1.06
2022-12-29T04:35:28.946Z,-1.09
2022-12-29T04:38:01.752Z,-1.12
2022-12-29T04:40:34.903Z,-1.14
2022-12-29T04:43:08.031Z,-1.16
2022-12-29T04:45:48.725Z,-1.20
2022-12-29T04:48:32.029Z,-1.22
2022-12-29T04:51:06.661Z,-1.24
2022-12-29T04:53:41.266Z,-1.26
2022-12-29T04:56:14.521Z,-1.28
2022-12-29T04:58:47.647Z,-1.29
2022-12-29T05:01:20.569Z,-1.27
2022-12-29T05:03:54.507Z,-1.30
2022-12-29T05:06:28.847Z,-1.33
2022-12-29T05:09:01.551Z,-1.34
2022-12-29T05:11:35.307Z,-1.34
2022-12-29T05:14:08.573Z,-1.32
2022-12-29T05:16:42.242Z,-1.30
2022-12-29T05:19:15.398Z,-1.25
2022-12-29T05:21:48.532Z,-1.24
2022-12-29T05:24:21.786Z,-1.28
2022-12-29T05:26:55.490Z,-1.30
2022-12-29T05:29:30.120Z,-1.35
2022-12-29T05:32:04.210Z,-1.37
2022-12-29T05:34:37.400Z,-1.36
2022-12-29T05:37:10.797Z,-1.36
2022-12-29T05:39:45.500Z,-1.37
2022-12-29T05:42:20.017Z,-1.37
2022-12-29T05:45:11.870Z,-1.36
2022-12-29T05:47:49.154Z,-1.36
2022-12-29T05:50:23.792Z,-1.36
2022-12-29T05:53:04.719Z,-1.35
2022-12-29T05:55:40.010Z,-1.32
2022-12-29T05:58:12.797Z,-1.32
2022-12-29T06:00:46.807Z,-1.32
2022-12-29T06:03:20.570Z,-1.31
2022-12-29T06:05:54.007Z,-1.30
2022-12-29T06:08:28.408Z,-1.32
2022-12-29T06:11:01.752Z,-1.34
2022-12-29T06:13:36.832Z,-1.33
2022-12-29T06:16:10.407Z,-1.33
2022-12-29T06:18:45.185Z,-1.32
2022-12-29T06:21:18.731Z,-1.35
2022-12-29T06:23:52.419Z,-1.36
2022-12-29T06:26:26.195Z,-1.34
2022-12-29T06:28:59.749Z,-1.34
2022-12-29T06:31:33.523Z,-1.34
2022-12-29T06:34:08.664Z,-1.32
2022-12-29T06:36:42.911Z,-1.32
2022-12-29T06:39:16.856Z,-1.29
2022-12-29T06:41:56.662Z,-1.28
2022-12-29T06:44:41.753Z,-1.24
2022-12-29T06:47:14.949Z,-1.22
2022-12-29T06:49:48.493Z,-1.18
2022-12-29T06:52:21.695Z,-1.08
2022-12-29T06:54:54.949Z,-1.08
2022-12-29T06:57:28.188Z,-1.03
2022-12-29T07:00:01.386Z,-0.96
2022-12-29T07:02:34.408Z,-0.92
2022-12-29T07:05:08.978Z,-0.87
2022-12-29T07:07:42.177Z,-0.83
2022-12-29T07:10:15.913Z,-0.76
2022-12-29T07:12:49.567Z,-0.70
2022-12-29T07:15:23.186Z,-0.65
2022-12-29T07:17:56.338Z,-0.63
2022-12-29T07:20:29.455Z,-0.59
2022-12-29T07:23:02.619Z,-0.52
2022-12-29T07:25:37.253Z,-0.46
2022-12-29T07:28:10.716Z,-0.41
2022-12-29T07:30:44.042Z,-0.36
2022-12-29T07:33:17.073Z,-0.31
2022-12-29T07:35:51.154Z,-0.25
2022-12-29T07:38:24.207Z,-0.18
2022-12-29T07:41:01.316Z,-0.12
2022-12-29T07:43:34.623Z,-0.07
2022-12-29T07:46:55.781Z,-0.02
2022-12-29T07:49:00.329Z,0.08
2022-12-29T07:51:34.084Z,0.15
2022-12-29T07:54:07.387Z,0.22
2022-12-29T07:56:40.320Z,0.28
2022-12-29T07:59:14.947Z,0.32
2022-12-29T08:01:47.796Z,0.40
2022-12-29T08:04:20.867Z,0.46
2022-12-29T08:06:53.789Z,0.53
2022-12-29T08:09:27.132Z,0.61
2022-12-29T08:12:00.134Z,0.64
2022-12-29T08:14:33.428Z,0.71
2022-12-29T08:17:06.790Z,0.77
2022-12-29T08:19:41.284Z,0.81
2022-12-29T08:26:09.641Z,0.80
2022-12-29T08:28:42.686Z,0.88
2022-12-29T08:31:15.502Z,0.91
2022-12-29T08:33:48.507Z,0.94
2022-12-29T08:36:22.385Z,0.95
2022-12-29T08:38:55.474Z,0.95
2022-12-29T08:41:28.337Z,0.95
2022-12-29T08:44:01.189Z,0.96
2022-12-29T08:46:34.083Z,0.97
2022-12-29T08:49:06.919Z,1.02
2022-12-29T08:51:41.033Z,1.08
2022-12-29T08:54:14.029Z,1.16
2022-12-29T08:56:46.982Z,1.24
2022-12-29T08:59:21.446Z,1.31
2022-12-29T09:01:54.660Z,1.36
2022-12-29T09:04:29.650Z,1.41
2022-12-29T09:07:02.875Z,1.48
2022-12-29T09:09:36.323Z,1.51
2022-12-29T09:12:10.886Z,1.55
2022-12-29T09:14:44.354Z,1.54
2022-12-29T09:17:35.239Z,1.57
2022-12-29T09:20:09.998Z,1.57
2022-12-29T09:22:43.310Z,1.60
2022-12-29T09:25:16.686Z,1.65
2022-12-29T09:27:50.315Z,1.67
2022-12-29T09:30:25.012Z,1.70
2022-12-29T09:32:58.063Z,1.76
2022-12-29T09:35:30.838Z,1.84
2022-12-29T09:38:03.851Z,1.87
2022-12-29T09:40:36.930Z,1.95
2022-12-29T09:43:42.724Z,2.01
2022-12-29T09:46:22.934Z,2.07
2022-12-29T09:49:12.381Z,2.15
2022-12-29T09:51:49.956Z,2.19
2022-12-29T09:55:11.967Z,2.24
2022-12-29T09:57:50.676Z,2.31
2022-12-29T10:00:27.600Z,2.38
2022-12-29T10:03:04.318Z,2.41
2022-12-29T10:05:54.378Z,2.43
2022-12-29T10:08:46.904Z,2.46
2022-12-29T10:11:39.967Z,2.48
2022-12-29T10:14:34.001Z,2.51
2022-12-29T10:17:37.786Z,2.56
2022-12-29T10:20:42.573Z,2.64
2022-12-29T10:23:44.611Z,2.75
2022-12-29T10:26:27.072Z,2.86
2022-12-29T10:29:25.181Z,2.96
2022-12-29T10:32:02.002Z,3.03
2022-12-29T10:34:47.915Z,3.10
2022-12-29T10:38:03.198Z,3.15
2022-12-29T10:41:00.069Z,3.17
2022-12-29T10:43:40.789Z,3.19
2022-12-29T10:46:26.320Z,3.20
2022-12-29T10:48:59.395Z,3.21
2022-12-29T10:51:37.040Z,3.20
2022-12-29T10:54:20.250Z,3.19
2022-12-29T10:57:28.725Z,3.24
2022-12-29T11:00:01.983Z,3.27
2022-12-29T11:02:55.572Z,3.32
2022-12-29T11:05:54.024Z,3.32
2022-12-29T11:08:32.524Z,3.28
2022-12-29T11:11:11.765Z,3.25
2022-12-29T11:13:55.270Z,3.25
2022-12-29T11:16:33.354Z,3.23
2022-12-29T11:19:06.877Z,3.23
2022-12-29T11:21:45.908Z,3.22
2022-12-29T11:24:29.191Z,3.21
2022-12-29T11:27:26.779Z,3.23
2022-12-29T11:29:59.741Z,3.26
2022-12-29T11:32:33.188Z,3.30
2022-12-29T11:35:07.786Z,3.31
2022-12-29T11:37:43.657Z,3.31
2022-12-29T11:40:22.252Z,3.33
2022-12-29T11:42:59.888Z,3.33
2022-12-29T11:45:36.656Z,3.26
2022-12-29T11:48:13.344Z,3.22
2022-12-29T11:50:52.877Z,3.17
2022-12-29T11:53:29.625Z,3.11
2022-12-29T11:56:10.426Z,3.04
2022-12-29T11:58:43.318Z,3.00
2022-12-29T12:01:27.081Z,2.96
2022-12-29T12:04:08.051Z,2.95
2022-12-29T12:07:15.374Z,2.95
2022-12-29T12:10:07.883Z,2.96
2022-12-29T12:12:46.218Z,3.02
2022-12-29T12:15:24.096Z,3.17
2022-12-29T12:18:15.111Z,3.23
2022-12-29T12:20:58.752Z,3.25
2022-12-29T12:24:06.512Z,3.26
2022-12-29T12:27:00.547Z,3.28
2022-12-29T12:29:56.681Z,3.24
2022-12-29T12:32:50.792Z,3.20
2022-12-29T12:35:37.232Z,3.14
2022-12-29T12:38:32.453Z,3.06
2022-12-29T12:41:24.585Z,2.99
2022-12-29T12:44:05.153Z,2.91
2022-12-29T12:47:08.753Z,2.86
2022-12-29T12:50:06.549Z,2.83
2022-12-29T12:53:17.326Z,2.81
2022-12-29T12:56:03.818Z,2.82
2022-12-29T12:59:10.013Z,2.82
2022-12-29T13:02:05.808Z,2.82
2022-12-29T13:04:58.770Z,2.78
2022-12-29T13:08:09.345Z,2.76
2022-12-29T13:11:26.463Z,2.71
2022-12-29T13:14:16.109Z,2.66
2022-12-29T13:16:56.307Z,2.58
2022-12-29T13:19:54.182Z,2.52
2022-12-29T13:22:43.922Z,2.45
2022-12-29T13:25:45.315Z,2.39
2022-12-29T13:28:26.026Z,2.34
2022-12-29T13:31:22.846Z,2.27
2022-12-29T13:34:12.198Z,2.22
2022-12-29T13:37:06.965Z,2.14
2022-12-29T13:39:44.792Z,2.08
2022-12-29T13:42:18.727Z,2.02
2022-12-29T13:45:08.152Z,1.98
2022-12-29T13:47:51.139Z,1.92
2022-12-29T13:50:27.821Z,1.85
2022-12-29T13:53:28.852Z,1.81
2022-12-29T13:56:38.312Z,1.78
2022-12-29T13:59:39.289Z,1.74
2022-12-29T14:02:22.932Z,1.68
2022-12-29T14:05:02.400Z,1.65
2022-12-29T14:07:42.084Z,1.66
2022-12-29T14:10:42.419Z,1.67
2022-12-29T14:13:23.530Z,1.68
2022-12-29T14:15:59.495Z,1.67
2022-12-29T14:18:35.366Z,1.66
2022-12-29T14:21:18.336Z,1.66
2022-12-29T14:23:55.244Z,1.65
2022-12-29T14:26:37.288Z,1.66
2022-12-29T14:29:33.242Z,1.67
2022-12-29T14:32:28.505Z,1.66
2022-12-29T14:35:05.067Z,1.65
2022-12-29T14:37:40.357Z,1.65
2022-12-29T14:40:24.394Z,1.62
2022-12-29T14:42:58.860Z,1.61
2022-12-29T14:45:33.210Z,1.59
2022-12-29T14:48:25.576Z,1.58
2022-12-29T14:50:58.941Z,1.57
2022-12-29T14:53:51.776Z,1.55
2022-12-29T14:56:32.461Z,1.56
2022-12-29T14:59:06.634Z,1.52
2022-12-29T15:01:50.351Z,1.49
2022-12-29T15:04:29.687Z,1.48
2022-12-29T15:07:04.815Z,1.46
2022-12-29T15:09:50.093Z,1.44
2022-12-29T15:12:50.369Z,1.40
2022-12-29T15:15:26.997Z,1.35
2022-12-29T15:17:59.909Z,1.29
2022-12-29T15:20:34.519Z,1.28
2022-12-29T15:23:15.639Z,1.25
2022-12-29T15:25:59.062Z,1.25
2022-12-29T15:28:45.857Z,1.25
2022-12-29T15:31:30.130Z,1.22
2022-12-29T15:34:14.632Z,1.23
2022-12-29T15:36:47.509Z,1.23
2022-12-29T15:39:33.905Z,1.23
2022-12-29T15:42:31.261Z,1.22
2022-12-29T15:45:11.808Z,1.21
2022-12-29T15:47:48.713Z,1.23
2022-12-29T15:50:31.910Z,1.24
2022-12-29T15:53:05.880Z,1.22
2022-12-29T15:55:42.389Z,1.22
2022-12-29T15:58:22.818Z,1.21
2022-12-29T16:01:01.168Z,1.20
2022-12-29T16:03:38.464Z,1.18
2022-12-29T16:06:30.596Z,1.17
2022-12-29T16:09:12.799Z,1.15
2022-12-29T16:11:51.596Z,1.11
2022-12-29T16:14:34.951Z,1.10
2022-12-29T16:17:08.567Z,1.11
2022-12-29T16:19:43.711Z,1.11
2022-12-29T16:22:26.717Z,1.11
2022-12-29T16:25:05.132Z,1.10
2022-12-29T16:27:44.391Z,1.09
2022-12-29T16:30:33.503Z,1.10
2022-12-29T16:33:06.463Z,1.12
2022-12-29T16:35:46.872Z,1.11
2022-12-29T16:38:25.101Z,1.07
2022-12-29T16:41:05.537Z,1.07
2022-12-29T16:43:41.471Z,1.02
2022-12-29T16:46:30.017Z,1.01
2022-12-29T16:49:03.094Z,1.01
2022-12-29T16:51:38.480Z,1.05
2022-12-29T16:54:18.937Z,1.07
2022-12-29T16:56:52.192Z,1.11
2022-12-29T16:59:38.703Z,1.13
2022-12-29T17:02:17.556Z,1.14
2022-12-29T17:04:51.781Z,1.17
2022-12-29T17:07:28.067Z,1.18
2022-12-29T17:10:01.050Z,1.18
2022-12-29T17:12:36.640Z,1.19
2022-12-29T17:15:34.360Z,1.18
2022-12-29T17:18:13.962Z,1.18
2022-12-29T17:20:44.986Z,1.17
2022-12-29T17:23:26.079Z,1.17
2022-12-29T17:25:54.467Z,1.16
2022-12-29T17:28:30.395Z,1.15
2022-12-29T17:31:07.714Z,1.14
2022-12-29T17:33:43.032Z,1.15
2022-12-29T17:36:16.179Z,1.12
2022-12-29T17:38:49.027Z,1.13
2022-12-29T17:41:21.962Z,1.10
2022-12-29T17:43:55.562Z,1.06
2022-12-29T17:46:29.393Z,1.07
2022-12-29T17:49:02.597Z,1.09
2022-12-29T17:51:36.771Z,1.12
2022-12-29T17:54:25.280Z,1.14
2022-12-29T17:56:58.259Z,1.15
2022-12-29T17:59:31.194Z,1.13
2022-12-29T18:02:04.083Z,1.12
2022-12-29T18:04:37.544Z,1.12
2022-12-29T18:07:12.774Z,1.13
2022-12-29T18:09:45.670Z,1.13
2022-12-29T18:12:31.835Z,1.12
2022-12-29T18:15:04.987Z,1.15
2022-12-29T18:17:38.037Z,1.17
2022-12-29T18:20:10.820Z,1.18
2022-12-29T18:22:44.071Z,1.21
2022-12-29T18:25:30.190Z,1.19
2022-12-29T18:28:03.559Z,1.19
2022-12-29T18:30:38.239Z,1.20
2022-12-29T18:33:23.394Z,1.20
2022-12-29T18:35:58.908Z,1.20
2022-12-29T18:38:32.353Z,1.20
2022-12-29T18:41:05.166Z,1.21
2022-12-29T18:43:38.085Z,1.22
2022-12-29T18:46:11.338Z,1.24
2022-12-29T18:48:44.590Z,1.25
2022-12-29T18:51:21.240Z,1.28
2022-12-29T18:53:54.973Z,1.29
2022-12-29T18:56:28.312Z,1.33
2022-12-29T18:59:02.819Z,1.35
2022-12-29T19:01:35.667Z,1.37
2022-12-29T19:04:08.562Z,1.38
2022-12-29T19:06:41.734Z,1.40
2022-12-29T19:09:14.719Z,1.40
2022-12-29T19:11:47.778Z,1.38
2022-12-29T19:14:21.206Z,1.38
2022-12-29T19:16:54.059Z,1.43
2022-12-29T19:19:27.179Z,1.41
2022-12-29T19:21:59.882Z,1.41
2022-12-29T19:24:33.235Z,1.39
2022-12-29T19:27:06.627Z,1.39
2022-12-29T19:29:40.280Z,1.40
2022-12-29T19:32:13.554Z,1.40
2022-12-29T19:34:48.010Z,1.39
2022-12-29T19:37:20.928Z,1.39
2022-12-29T19:39:54.316Z,1.40
2022-12-29T19:42:27.227Z,1.44
2022-12-29T19:45:00.216Z,1.45
2022-12-29T19:47:33.851Z,1.44
2022-12-29T19:50:09.284Z,1.46
2022-12-29T19:52:43.158Z,1.48
2022-12-29T19:55:19.849Z,1.49
2022-12-29T19:57:53.107Z,1.50
2022-12-29T20:00:26.454Z,1.51
2022-12-29T20:02:59.509Z,1.52
2022-12-29T20:05:33.239Z,1.52
2022-12-29T20:08:06.624Z,1.55
2022-12-29T20:10:40.501Z,1.56
2022-12-29T20:13:13.783Z,1.57
2022-12-29T20:15:46.618Z,1.58
2022-12-29T20:18:25.179Z,1.60
2022-12-29T20:20:54.225Z,1.61
2022-12-29T20:23:27.110Z,1.65
2022-12-29T20:26:00.914Z,1.67
2022-12-29T20:28:34.318Z,1.69
2022-12-29T20:31:12.516Z,1.69
2022-12-29T20:33:45.391Z,1.68
2022-12-29T20:36:23.292Z,1.66
2022-12-29T20:38:59.066Z,1.66
2022-12-29T20:41:32.373Z,1.67
2022-12-29T20:44:05.706Z,1.68
2022-12-29T20:46:43.566Z,1.69
2022-12-29T20:49:15.479Z,1.67
2022-12-29T20:52:05.886Z,1.65
2022-12-29T20:54:24.123Z,1.65
2022-12-29T20:56:57.190Z,1.66
2022-12-29T20:59:30.784Z,1.65
2022-12-29T21:02:04.707Z,1.63
2022-12-29T21:05:13.423Z,1.63
2022-12-29T21:07:18.030Z,1.59
2022-12-29T21:09:48.036Z,1.56
2022-12-29T21:12:21.182Z,1.56
2022-12-29T21:14:54.001Z,1.57
2022-12-29T21:17:27.022Z,1.57
2022-12-29T21:19:59.867Z,1.59
2022-12-29T21:22:34.794Z,1.58
2022-12-29T21:25:08.775Z,1.59
2022-12-29T21:27:45.041Z,1.59
2022-12-29T21:30:18.129Z,1.61
2022-12-29T21:32:51.777Z,1.61
2022-12-29T21:35:24.614Z,1.60
2022-12-29T21:37:57.404Z,1.61
2022-12-29T21:40:30.189Z,1.62
2022-12-29T21:43:03.139Z,1.65
2022-12-29T21:45:36.194Z,1.66
2022-12-29T21:48:21.814Z,1.68
2022-12-29T21:51:19.882Z,1.68
2022-12-29T21:54:00.876Z,1.68
2022-12-29T21:56:33.845Z,1.67
2022-12-29T21:59:24.716Z,1.69
2022-12-29T22:02:15.267Z,1.71
2022-12-29T22:05:06.387Z,1.69
2022-12-29T22:07:57.086Z,1.70
2022-12-29T22:11:04.307Z,1.70
2022-12-29T22:13:39.822Z,1.71
2022-12-29T22:16:15.853Z,1.71
2022-12-29T22:18:48.479Z,1.71
2022-12-29T22:21:21.580Z,1.72
2022-12-29T22:23:54.421Z,1.71
2022-12-29T22:26:27.251Z,1.72
2022-12-29T22:29:00.150Z,1.73
2022-12-29T22:31:34.200Z,1.75
2022-12-29T22:34:06.722Z,1.76
2022-12-29T22:36:39.147Z,1.80
2022-12-29T22:39:12.094Z,1.78
2022-12-29T22:41:44.773Z,1.80
2022-12-29T22:44:17.697Z,1.80
2022-12-29T22:46:50.784Z,1.83
2022-12-29T22:49:23.811Z,1.84
2022-12-29T22:51:56.564Z,1.87
2022-12-29T22:54:29.300Z,1.89
2022-12-29T22:57:02.089Z,1.87
2022-12-29T22:59:35.428Z,1.88
2022-12-29T23:02:08.437Z,1.90
2022-12-29T23:07:16.362Z,1.92
2022-12-29T23:09:49.049Z,1.93
2022-12-29T23:12:22.455Z,1.94
2022-12-29T23:14:55.234Z,1.94
2022-12-29T23:17:28.631Z,1.96
2022-12-29T23:20:01.204Z,1.98
2022-12-29T23:22:34.809Z,2.00
2022-12-29T23:25:07.896Z,2.01
2022-12-29T23:27:41.194Z,2.03
2022-12-29T23:30:14.187Z,2.05
2022-12-29T23:32:47.475Z,2.06
2022-12-29T23:35:20.269Z,2.08
2022-12-29T23:37:53.065Z,2.10
2022-12-29T23:40:25.907Z,2.11
2022-12-29T23:42:58.828Z,2.09
2022-12-29T23:45:31.593Z,2.09
2022-12-29T23:48:04.556Z,2.11
2022-12-29T23:50:43.078Z,2.12
2022-12-29T23:53:16.367Z,2.13
2022-12-29T23:55:53.991Z,2.16
2022-12-29T23:58:26.874Z,2.15
